Time;durP1;ratioP1;P1;durP2;ratioP2;P2;SDS_P1;SDS_P2;PMS_P1;PMS_P2;Temp;Humidity;BMP_temperature;BMP_pressure;BME280_temperature;BME280_humidity;BME280_pressure;Samples;Min_cycle;Max_cycle;Signal;HPM_P1;HPM_P2
2023/06/12 00:02:02;;;;;;;3.72;3.42;;;21.30;68.40;;;;;;5000268;28;20125;-86
2023/06/12 00:04:29;;;;;;;2.70;2.50;;;21.30;68.40;;;;;;5003670;28;20389;-85
2023/06/12 00:06:56;;;;;;;3.10;2.80;;;21.30;68.50;;;;;;5002327;28;20089;-88
2023/06/12 00:09:22;;;;;;;3.00;2.80;;;21.30;68.60;;;;;;4993837;28;20034;-87
2023/06/12 00:11:48;;;;;;;3.00;2.78;;;21.30;68.60;;;;;;5001490;28;20108;-87
2023/06/12 00:14:17;;;;;;;3.05;2.85;;;21.20;68.50;;;;;;5014398;28;20287;-86
2023/06/12 00:16:43;;;;;;;2.85;2.65;;;21.20;68.60;;;;;;4993058;28;20405;-84
2023/06/12 00:19:11;;;;;;;2.90;2.70;;;21.20;68.60;;;;;;4992865;28;20050;-86
2023/06/12 00:21:38;;;;;;;3.03;2.83;;;21.10;69.10;;;;;;5002591;28;20292;-86
2023/06/12 00:24:08;;;;;;;3.20;2.90;;;21.10;68.60;;;;;;4998822;28;20033;-88
2023/06/12 00:26:40;;;;;;;3.75;3.45;;;21.10;68.70;;;;;;5003390;28;20041;-88
2023/06/12 00:29:06;;;;;;;3.40;3.08;;;21.10;68.70;;;;;;5001984;28;20098;-88
2023/06/12 00:31:33;;;;;;;3.58;3.28;;;21.10;68.80;;;;;;5001642;28;20053;-87
2023/06/12 00:33:59;;;;;;;3.42;3.13;;;21.00;68.70;;;;;;5004390;28;20384;-87
2023/06/12 00:36:26;;;;;;;3.63;3.33;;;21.00;68.70;;;;;;5001277;28;20111;-88
2023/06/12 00:38:58;;;;;;;2.88;2.67;;;21.00;68.80;;;;;;5003010;28;20068;-87
2023/06/12 00:41:25;;;;;;;3.45;3.15;;;21.00;68.90;;;;;;5003752;28;20120;-87
2023/06/12 00:43:51;;;;;;;3.33;3.03;;;21.00;68.90;;;;;;5004916;28;20221;-87
2023/06/12 00:46:18;;;;;;;3.53;2.95;;;20.90;68.80;;;;;;5000326;28;20401;-87
2023/06/12 00:48:46;;;;;;;3.33;3.03;;;20.90;68.80;;;;;;5004626;28;20053;-87
2023/06/12 00:51:12;;;;;;;3.15;2.90;;;20.90;68.90;;;;;;4995034;28;20061;-87
2023/06/12 00:53:44;;;;;;;3.78;3.33;;;20.90;68.90;;;;;;5010008;28;20433;-88
2023/06/12 00:56:10;;;;;;;3.63;3.33;;;20.90;69.00;;;;;;5004081;28;20033;-87
2023/06/12 00:58:37;;;;;;;3.75;3.45;;;20.90;69.00;;;;;;4986461;28;20046;-87
2023/06/12 01:01:03;;;;;;;2.97;2.55;;;20.90;69.00;;;;;;5002230;28;20050;-88
2023/06/12 01:03:32;;;;;;;3.50;3.28;;;20.90;69.10;;;;;;4998238;28;20037;-87
2023/06/12 01:06:00;;;;;;;3.45;3.25;;;20.80;69.00;;;;;;5001459;28;20095;-86
2023/06/12 01:08:39;;;;;;;3.80;3.50;;;20.80;69.00;;;;;;5003503;28;20540;-84
2023/06/12 01:11:08;;;;;;;3.60;3.30;;;20.80;69.10;;;;;;4982816;28;20034;-86
2023/06/12 01:13:36;;;;;;;4.28;3.88;;;20.80;69.10;;;;;;4997168;28;20034;-87
2023/06/12 01:16:03;;;;;;;4.05;3.65;;;20.80;69.10;;;;;;5001052;28;20512;-86
2023/06/12 01:18:32;;;;;;;3.95;3.65;;;20.80;69.10;;;;;;4998652;28;20028;-87
2023/06/12 01:21:05;;;;;;;3.90;3.60;;;20.80;69.20;;;;;;5000702;28;20089;-88
2023/06/12 01:23:49;;;;;;;4.03;3.63;;;20.70;69.10;;;;;;5001612;28;20037;-89
2023/06/12 01:26:49;;;;;;;4.20;3.90;;;20.70;69.20;;;;;;4986812;28;20065;-86
2023/06/12 01:29:29;;;;;;;4.70;4.30;;;20.70;69.20;;;;;;4999725;28;20034;-88
2023/06/12 01:32:07;;;;;;;4.40;4.03;;;20.70;69.10;;;;;;4999549;28;20569;-90
2023/06/12 01:34:43;;;;;;;5.10;4.60;;;20.70;69.20;;;;;;5002435;28;20071;-88
2023/06/12 01:37:32;;;;;;;4.70;4.25;;;20.70;69.20;;;;;;5005591;28;20026;-86
2023/06/12 01:40:06;;;;;;;4.95;4.55;;;20.60;69.20;;;;;;5002842;28;20045;-86
2023/06/12 01:42:33;;;;;;;;;;;20.60;69.20;;;;;;5002258;28;20080;-87
2023/06/12 01:45:00;;;;;;;4.97;4.47;;;20.60;69.10;;;;;;5001533;28;19909;-88
2023/06/12 01:47:46;;;;;;;4.72;4.32;;;20.60;68.90;;;;;;4986394;28;20053;-87
2023/06/12 01:50:16;;;;;;;4.63;4.22;;;20.50;68.80;;;;;;4997956;28;20034;-87
2023/06/12 01:52:43;;;;;;;4.78;4.38;;;20.50;69.00;;;;;;4998959;28;20117;-88
2023/06/12 01:55:09;;;;;;;5.20;4.80;;;20.50;69.10;;;;;;5007571;28;20092;-87
2023/06/12 01:57:38;;;;;;;4.70;4.22;;;20.50;69.10;;;;;;5005328;28;20397;-87
2023/06/12 02:00:11;;;;;;;5.38;4.97;;;20.50;69.20;;;;;;5005362;28;20288;-87
2023/06/12 02:02:56;;;;;;;5.05;4.65;;;20.50;69.20;;;;;;4997215;28;20386;-88
2023/06/12 02:05:27;;;;;;;4.93;4.45;;;20.50;69.30;;;;;;5005238;28;20128;-86
2023/06/12 02:07:57;;;;;;;5.40;4.90;;;20.50;69.30;;;;;;5007098;28;20033;-87
2023/06/12 02:10:26;;;;;;;5.65;4.78;;;20.50;69.30;;;;;;4991541;28;20046;-87
2023/06/12 02:12:54;;;;;;;5.20;4.72;;;20.50;69.40;;;;;;4997648;28;20026;-87
2023/06/12 02:15:30;;;;;;;5.22;4.82;;;20.50;69.40;;;;;;5001850;28;20505;-86
2023/06/12 02:17:56;;;;;;;5.32;4.93;;;20.50;69.40;;;;;;4994626;28;20045;-87
2023/06/12 02:20:24;;;;;;;5.85;5.35;;;20.40;69.30;;;;;;5005016;28;20042;-87
2023/06/12 02:22:53;;;;;;;5.40;4.90;;;20.40;69.40;;;;;;4984537;28;20034;-87
2023/06/12 02:25:20;;;;;;;5.40;4.95;;;20.40;69.40;;;;;;5005285;28;20037;-86
2023/06/12 02:27:48;;;;;;;6.00;5.53;;;20.40;69.40;;;;;;5005646;28;20026;-87
2023/06/12 02:30:20;;;;;;;5.80;5.30;;;20.40;69.50;;;;;;5000857;28;20086;-85
2023/06/12 02:32:49;;;;;;;5.90;5.40;;;20.40;69.50;;;;;;5005156;28;20102;-85
2023/06/12 02:35:19;;;;;;;6.22;5.63;;;20.40;69.50;;;;;;5003592;28;20125;-87
2023/06/12 02:37:51;;;;;;;5.90;5.40;;;20.40;69.60;;;;;;5008414;28;20026;-88
2023/06/12 02:40:17;;;;;;;5.75;5.25;;;20.30;69.40;;;;;;5006306;28;20622;-86
2023/06/12 02:42:44;;;;;;;6.03;5.53;;;20.30;69.40;;;;;;5003379;28;20445;-88
2023/06/12 02:45:12;;;;;;;5.97;5.38;;;20.30;69.50;;;;;;4988458;28;20353;-88
2023/06/12 02:47:39;;;;;;;5.75;5.25;;;20.30;69.60;;;;;;5003886;28;20103;-89
2023/06/12 02:50:12;;;;;;;6.50;5.85;;;20.30;69.60;;;;;;4999059;28;20069;-89
2023/06/12 02:52:56;;;;;;;5.43;4.93;;;20.30;69.70;;;;;;5003023;28;20037;-87
2023/06/12 02:55:23;;;;;;;6.15;5.60;;;20.20;69.50;;;;;;5010855;28;20121;-90
2023/06/12 02:57:51;;;;;;;5.68;5.15;;;20.30;69.70;;;;;;5011100;28;20064;-88
2023/06/12 03:00:20;;;;;;;6.80;6.30;;;20.20;69.60;;;;;;5008034;28;20037;-88
2023/06/12 03:02:47;;;;;;;5.30;4.90;;;20.20;69.60;;;;;;5007871;28;20112;-87
2023/06/12 03:05:16;;;;;;;5.80;5.30;;;20.20;69.70;;;;;;5009250;28;20493;-89
2023/06/12 03:07:43;;;;;;;5.75;5.25;;;20.20;69.70;;;;;;5007567;28;20496;-86
2023/06/12 03:10:12;;;;;;;6.05;5.55;;;20.20;69.70;;;;;;5008914;28;20042;-86
2023/06/12 03:12:40;;;;;;;6.07;5.57;;;20.20;69.80;;;;;;5007840;28;20103;-83
2023/06/12 03:15:08;;;;;;;5.85;5.45;;;20.20;69.80;;;;;;5005237;28;20210;-87
2023/06/12 03:17:34;;;;;;;6.00;5.50;;;20.20;69.90;;;;;;5001403;28;20117;-88
2023/06/12 03:20:04;;;;;;;5.90;5.38;;;20.20;69.90;;;;;;5003803;28;20046;-88
2023/06/12 03:22:30;;;;;;;5.18;4.78;;;20.10;69.80;;;;;;5007815;28;20154;-88
2023/06/12 03:25:06;;;;;;;5.50;5.10;;;20.10;69.80;;;;;;5008165;28;20068;-87
2023/06/12 03:27:32;;;;;;;5.70;5.20;;;20.10;69.80;;;;;;5007912;28;20030;-89
2023/06/12 03:30:00;;;;;;;5.40;5.00;;;20.10;69.80;;;;;;4990241;28;20041;-88
2023/06/12 03:32:27;;;;;;;6.13;5.53;;;20.10;69.80;;;;;;5007349;28;20419;-88
2023/06/12 03:34:57;;;;;;;6.60;6.10;;;20.10;69.80;;;;;;5007940;28;20033;-86
2023/06/12 03:37:28;;;;;;;5.35;4.95;;;20.10;69.80;;;;;;5007547;28;20072;-86
2023/06/12 03:40:15;;;;;;;5.65;5.20;;;20.10;69.90;;;;;;4954228;28;20482;-87
2023/06/12 03:42:43;;;;;;;5.35;4.90;;;20.10;69.80;;;;;;4997737;28;20508;-86
2023/06/12 03:45:11;;;;;;;5.93;5.38;;;20.10;69.80;;;;;;5007069;28;20041;-86
2023/06/12 03:47:40;;;;;;;5.88;5.28;;;20.10;69.90;;;;;;5007246;28;20370;-85
2023/06/12 03:50:10;;;;;;;6.05;5.55;;;20.00;69.80;;;;;;5001305;28;20083;-86
2023/06/12 03:52:40;;;;;;;6.13;5.63;;;20.10;70.00;;;;;;5004895;28;20033;-87
2023/06/12 03:55:09;;;;;;;6.82;6.22;;;20.00;69.80;;;;;;5009330;28;20048;-87
2023/06/12 03:57:36;;;;;;;6.07;5.57;;;20.00;69.90;;;;;;5007737;28;20120;-87
2023/06/12 04:00:03;;;;;;;6.53;5.93;;;20.00;69.90;;;;;;5006513;28;20046;-86
2023/06/12 04:02:31;;;;;;;6.75;6.15;;;20.00;69.90;;;;;;5009091;28;20079;-87
2023/06/12 04:04:58;;;;;;;6.68;5.95;;;20.00;70.00;;;;;;5002728;28;20560;-86
2023/06/12 04:07:26;;;;;;;6.30;5.80;;;20.00;70.00;;;;;;5008688;28;20056;-85
2023/06/12 04:09:52;;;;;;;6.82;6.15;;;20.00;70.00;;;;;;5009138;28;20180;-86
2023/06/12 04:12:21;;;;;;;6.72;6.03;;;20.00;70.00;;;;;;5006757;28;20044;-86
2023/06/12 04:14:50;;;;;;;5.78;5.32;;;20.00;70.00;;;;;;5007225;28;20076;-86
2023/06/12 04:17:17;;;;;;;6.43;5.93;;;20.00;70.00;;;;;;5003154;28;20054;-86
2023/06/12 04:19:48;;;;;;;6.20;5.70;;;20.00;70.00;;;;;;5007261;28;20466;-88
2023/06/12 04:22:17;;;;;;;6.88;6.22;;;20.00;70.10;;;;;;5006955;28;20504;-84
2023/06/12 04:24:43;;;;;;;6.50;5.90;;;20.00;70.00;;;;;;5001749;28;20030;-88
2023/06/12 04:27:10;;;;;;;6.50;5.90;;;20.00;70.10;;;;;;4999639;28;20033;-84
2023/06/12 04:29:42;;;;;;;6.10;5.60;;;19.90;69.90;;;;;;5007026;28;20421;-84
2023/06/12 04:32:13;;;;;;;6.55;5.95;;;20.00;70.10;;;;;;5005611;28;20497;-86
2023/06/12 04:34:45;;;;;;;6.22;5.63;;;20.00;70.10;;;;;;5004727;28;20559;-87
2023/06/12 04:37:13;;;;;;;6.05;5.50;;;20.00;70.10;;;;;;5010512;28;20443;-87
2023/06/12 04:39:47;;;;;;;6.07;5.57;;;20.00;70.10;;;;;;5006798;28;20046;-88
2023/06/12 04:42:16;;;;;;;7.03;6.32;;;20.00;70.00;;;;;;5006661;28;20026;-89
2023/06/12 04:44:46;;;;;;;7.35;6.60;;;20.00;70.00;;;;;;5006256;28;20030;-88
2023/06/12 04:47:17;;;;;;;7.40;6.80;;;20.10;70.70;;;;;;5005387;28;20050;-89
2023/06/12 04:49:47;;;;;;;6.28;5.78;;;20.10;70.00;;;;;;5001428;28;20031;-88
2023/06/12 04:52:20;;;;;;;6.22;5.72;;;20.10;70.00;;;;;;5009162;28;20038;-88
2023/06/12 04:54:49;;;;;;;6.63;6.07;;;20.10;69.90;;;;;;5003417;28;20049;-88
2023/06/12 04:57:18;;;;;;;7.00;6.25;;;20.10;69.90;;;;;;5010093;28;20242;-89
2023/06/12 04:59:45;;;;;;;6.68;6.07;;;20.20;70.00;;;;;;5005584;28;20310;-86
2023/06/12 05:02:15;;;;;;;6.22;5.72;;;20.20;70.00;;;;;;4998327;28;20160;-91
2023/06/12 05:04:50;;;;;;;6.22;5.70;;;20.20;70.00;;;;;;4996215;28;20053;-87
2023/06/12 05:07:17;;;;;;;6.55;5.97;;;20.30;70.00;;;;;;5002123;28;20460;-88
2023/06/12 05:09:46;;;;;;;6.80;6.10;;;20.30;70.00;;;;;;5002811;28;20168;-88
2023/06/12 05:12:13;;;;;;;6.38;5.75;;;20.40;70.00;;;;;;4985779;28;20059;-89
2023/06/12 05:14:43;;;;;;;6.28;5.78;;;20.40;69.90;;;;;;5007712;28;20030;-88
2023/06/12 05:17:09;;;;;;;6.90;6.20;;;20.50;70.00;;;;;;4996578;28;20384;-86
2023/06/12 05:19:38;;;;;;;6.38;5.78;;;20.50;69.80;;;;;;5009134;28;20034;-89
2023/06/12 05:22:05;;;;;;;6.22;5.63;;;20.60;69.90;;;;;;5001771;28;20042;-90
2023/06/12 05:24:32;;;;;;;6.07;5.57;;;20.70;69.90;;;;;;4989158;28;20265;-88
2023/06/12 05:27:01;;;;;;;6.00;5.45;;;20.80;69.90;;;;;;5002049;28;20037;-86
2023/06/12 05:29:28;;;;;;;6.07;5.50;;;20.80;69.80;;;;;;5003309;28;20125;-88
2023/06/12 05:31:57;;;;;;;6.43;5.82;;;20.90;69.90;;;;;;5001815;28;20030;-88
2023/06/12 05:34:26;;;;;;;6.30;5.75;;;20.90;69.70;;;;;;5000074;28;20050;-90
2023/06/12 05:36:54;;;;;;;6.10;5.50;;;21.00;69.90;;;;;;5020011;28;20432;-87
2023/06/12 05:39:24;;;;;;;6.00;5.40;;;21.00;69.80;;;;;;5005553;28;20048;-87
2023/06/12 05:41:50;;;;;;;6.60;6.00;;;21.00;69.60;;;;;;5000229;28;20036;-86
2023/06/12 05:44:22;;;;;;;6.65;6.15;;;21.10;69.70;;;;;;4997875;28;20034;-86
2023/06/12 05:46:51;;;;;;;6.30;5.80;;;21.10;69.60;;;;;;4998876;28;20050;-83
2023/06/12 05:49:22;;;;;;;5.55;5.05;;;21.10;69.60;;;;;;4998759;28;20521;-85
2023/06/12 05:51:48;;;;;;;6.03;5.53;;;21.10;69.60;;;;;;5006660;28;20042;-83
2023/06/12 05:54:17;;;;;;;7.38;5.95;;;21.10;69.50;;;;;;4996184;28;20052;-79
2023/06/12 05:56:44;;;;;;;5.45;4.97;;;21.10;69.50;;;;;;4995870;28;20590;-78
2023/06/12 05:59:10;;;;;;;6.63;5.97;;;21.20;69.70;;;;;;5006929;28;20045;-80
2023/06/12 06:01:39;;;;;;;6.93;6.38;;;21.20;69.60;;;;;;4998182;28;20042;-79
2023/06/12 06:04:08;;;;;;;6.55;5.82;;;21.30;69.70;;;;;;5014735;28;20029;-82
2023/06/12 06:06:34;;;;;;;6.20;5.60;;;21.30;69.60;;;;;;5006761;28;20037;-83
2023/06/12 06:09:05;;;;;;;6.45;5.90;;;21.40;69.60;;;;;;4988148;28;20049;-78
2023/06/12 06:11:34;;;;;;;7.13;6.43;;;21.50;69.60;;;;;;4999003;28;20040;-83
2023/06/12 06:14:03;;;;;;;6.47;5.88;;;21.60;69.50;;;;;;4999167;28;20026;-82
2023/06/12 06:16:31;;;;;;;7.13;6.43;;;21.70;69.40;;;;;;4993956;28;20041;-82
2023/06/12 06:19:00;;;;;;;6.93;6.22;;;21.80;69.40;;;;;;4995310;28;20384;-84
2023/06/12 06:21:26;;;;;;;6.43;5.82;;;21.90;69.40;;;;;;5013285;28;20242;-84
2023/06/12 06:23:53;;;;;;;7.00;6.40;;;22.00;69.40;;;;;;4997208;28;20037;-88
2023/06/12 06:26:22;;;;;;;6.13;5.53;;;22.10;69.40;;;;;;4987298;28;20575;-84
2023/06/12 06:28:49;;;;;;;6.60;5.93;;;22.20;69.30;;;;;;4988882;28;20091;-79
2023/06/12 06:31:19;;;;;;;7.22;6.60;;;22.20;69.10;;;;;;5000298;28;20044;-85
2023/06/12 06:33:45;;;;;;;6.50;5.93;;;22.30;69.00;;;;;;4999744;28;20033;-86
2023/06/12 06:36:14;;;;;;;9.77;7.07;;;22.40;69.00;;;;;;5007825;28;20025;-83
2023/06/12 06:38:41;;;;;;;8.95;8.02;;;22.50;69.20;;;;;;5004684;28;20041;-81
2023/06/12 06:41:07;;;;;;;9.70;8.25;;;22.60;69.40;;;;;;5000757;28;20201;-80
2023/06/12 06:43:33;;;;;;;11.98;9.63;;;22.70;69.60;;;;;;4983123;28;20548;-81
2023/06/12 06:46:08;;;;;;;9.65;8.75;;;22.80;69.60;;;;;;4996910;28;20050;-80
2023/06/12 06:48:37;;;;;;;9.50;8.32;;;22.90;69.60;;;;;;4998394;28;20038;-81
2023/06/12 06:51:04;;;;;;;9.48;8.60;;;23.00;69.50;;;;;;5004093;28;20053;-81
2023/06/12 06:53:42;;;;;;;11.15;8.55;;;23.20;69.70;;;;;;4999639;28;20118;-81
2023/06/12 06:56:09;;;;;;;9.02;8.23;;;23.20;69.40;;;;;;5003071;28;20045;-82
2023/06/12 06:58:48;;;;;;;9.48;8.40;;;23.40;69.50;;;;;;4996170;28;20572;-80
2023/06/12 07:01:15;;;;;;;9.95;8.95;;;23.50;69.40;;;;;;5003087;28;20115;-81
2023/06/12 07:03:51;;;;;;;11.27;9.48;;;23.60;69.30;;;;;;5001087;28;20042;-80
2023/06/12 07:06:19;;;;;;;9.13;8.20;;;23.70;69.40;;;;;;5004541;28;20359;-80
2023/06/12 07:08:45;;;;;;;9.05;8.15;;;23.70;69.20;;;;;;5002302;28;20030;-80
2023/06/12 07:11:11;;;;;;;9.45;8.55;;;23.80;69.20;;;;;;4981744;28;20030;-82
2023/06/12 07:13:40;;;;;;;10.02;9.10;;;23.90;69.20;;;;;;4997231;28;20046;-82
2023/06/12 07:16:06;;;;;;;10.50;9.50;;;24.20;69.10;;;;;;5001756;28;20208;-85
2023/06/12 07:18:35;;;;;;;9.93;8.93;;;24.50;68.90;;;;;;4997505;28;20037;-88
2023/06/12 07:21:09;;;;;;;15.85;14.35;;;25.00;69.50;;;;;;4984371;28;20049;-84
2023/06/12 07:23:37;;;;;;;17.75;15.70;;;25.30;68.10;;;;;;5000510;28;20385;-82
2023/06/12 07:26:06;;;;;;;17.52;15.80;;;25.60;67.50;;;;;;4998361;28;20053;-82
2023/06/12 07:28:32;;;;;;;18.52;16.67;;;25.80;67.10;;;;;;4999508;28;20069;-84
2023/06/12 07:30:59;;;;;;;18.35;16.35;;;26.00;66.80;;;;;;4999181;28;20037;-83
2023/06/12 07:33:28;;;;;;;18.23;16.33;;;26.30;66.20;;;;;;4995960;28;20309;-83
2023/06/12 07:35:55;;;;;;;17.55;15.70;;;26.60;65.30;;;;;;4999231;28;20335;-83
2023/06/12 07:38:33;;;;;;;20.27;15.45;;;26.70;64.40;;;;;;4997819;28;20046;-81
2023/06/12 07:40:59;;;;;;;17.80;16.17;;;26.70;63.90;;;;;;4997185;28;20140;-81
2023/06/12 07:43:26;;;;;;;19.35;17.15;;;26.70;63.80;;;;;;4997358;28;20041;-79
2023/06/12 07:45:52;;;;;;;17.58;16.02;;;26.90;63.40;;;;;;4999611;28;20043;-83
2023/06/12 07:48:19;;;;;;;16.08;14.48;;;27.20;63.50;;;;;;4998038;28;20050;-84
2023/06/12 07:50:50;;;;;;;18.30;16.40;;;27.60;62.20;;;;;;4998765;28;20528;-83
2023/06/12 07:53:19;;;;;;;15.27;13.68;;;28.00;61.20;;;;;;4982862;28;20053;-84
2023/06/12 07:55:49;;;;;;;17.67;16.02;;;28.10;60.70;;;;;;4998900;28;20539;-84
2023/06/12 07:58:15;;;;;;;16.17;14.70;;;28.10;60.60;;;;;;4995771;28;20027;-83
2023/06/12 08:00:42;;;;;;;16.40;15.00;;;28.00;60.40;;;;;;4982900;28;20049;-87
2023/06/12 08:03:08;;;;;;;16.75;15.10;;;27.90;60.40;;;;;;5000737;28;20038;-85
2023/06/12 08:05:47;;;;;;;15.77;14.57;;;27.80;60.80;;;;;;4993752;28;20112;-84
2023/06/12 08:08:25;;;;;;;14.55;13.15;;;27.60;61.10;;;;;;4998653;28;20034;-83
2023/06/12 08:10:52;;;;;;;14.70;13.40;;;27.70;61.10;;;;;;4996299;28;20026;-83
2023/06/12 08:13:32;;;;;;;12.85;11.80;;;27.70;60.90;;;;;;4996708;28;20153;-82
2023/06/12 08:15:58;;;;;;;13.88;12.55;;;27.80;60.70;;;;;;4979837;28;20555;-81
2023/06/12 08:18:28;;;;;;;13.70;12.32;;;27.80;60.30;;;;;;4993836;28;20088;-81
2023/06/12 08:20:57;;;;;;;14.13;12.80;;;27.70;60.20;;;;;;4997172;28;20065;-79
2023/06/12 08:23:23;;;;;;;13.23;12.13;;;27.60;60.20;;;;;;5001070;28;20145;-81
2023/06/12 08:25:53;;;;;;;14.05;12.85;;;27.40;60.20;;;;;;4997923;28;20080;-81
2023/06/12 08:28:22;;;;;;;14.63;13.43;;;27.30;60.30;;;;;;4990843;28;20076;-82
2023/06/12 08:30:50;;;;;;;14.85;13.45;;;27.30;60.80;;;;;;5000893;28;20547;-82
2023/06/12 08:33:18;;;;;;;15.30;14.00;;;27.30;59.90;;;;;;5000321;28;20350;-81
2023/06/12 08:35:46;;;;;;;14.77;13.40;;;27.40;59.70;;;;;;4996390;28;20468;-82
2023/06/12 08:38:12;;;;;;;13.98;12.80;;;27.50;59.60;;;;;;5002649;28;20037;-83
2023/06/12 08:40:38;;;;;;;14.57;13.18;;;27.50;59.60;;;;;;4997462;28;20056;-81
2023/06/12 08:43:17;;;;;;;14.93;13.63;;;27.60;59.60;;;;;;4995366;28;20622;-80
2023/06/12 08:45:47;;;;;;;22.98;13.52;;;27.80;59.50;;;;;;4995271;28;20040;-82
2023/06/12 08:48:19;;;;;;;18.45;15.43;;;27.90;59.30;;;;;;4995764;28;20045;-81
2023/06/12 08:50:47;;;;;;;15.40;13.90;;;27.90;59.00;;;;;;4999631;28;20041;-81
2023/06/12 08:53:16;;;;;;;14.77;13.45;;;27.90;59.00;;;;;;4975573;28;20040;-82
2023/06/12 08:55:44;;;;;;;17.85;16.05;;;28.00;59.00;;;;;;4996400;28;20529;-89
2023/06/12 08:58:30;;;;;;;16.40;15.00;;;28.20;58.80;;;;;;4997526;28;20048;-82
2023/06/12 09:00:57;;;;;;;16.80;15.38;;;28.40;58.30;;;;;;5005951;28;20049;-78
2023/06/12 09:03:23;;;;;;;17.98;16.23;;;28.70;57.90;;;;;;5004869;28;20029;-84
2023/06/12 09:05:52;;;;;;;15.90;14.60;;;28.90;57.50;;;;;;4984406;28;20077;-81
2023/06/12 09:08:21;;;;;;;15.65;14.25;;;28.90;57.00;;;;;;4998205;28;20033;-81
2023/06/12 09:10:49;;;;;;;14.70;13.52;;;29.00;57.10;;;;;;4998980;28;20045;-82
2023/06/12 09:13:17;;;;;;;15.15;13.85;;;29.00;57.10;;;;;;4995779;28;20504;-81
2023/06/12 09:15:52;;;;;;;16.55;14.93;;;29.20;56.90;;;;;;4994645;28;20561;-81
2023/06/12 09:18:19;;;;;;;16.10;14.48;;;29.40;56.50;;;;;;4993421;28;20045;-81
2023/06/12 09:20:51;;;;;;;16.90;15.23;;;29.60;56.00;;;;;;4998639;28;20461;-83
2023/06/12 09:23:20;;;;;;;17.45;15.95;;;29.70;55.60;;;;;;5001843;28;20398;-81
2023/06/12 09:25:50;;;;;;;15.73;14.27;;;29.90;55.40;;;;;;4994445;28;20147;-81
2023/06/12 09:28:24;;;;;;;16.83;15.18;;;30.00;55.10;;;;;;4999628;28;20040;-87
2023/06/12 09:30:52;;;;;;;16.38;15.02;;;30.20;54.70;;;;;;4996646;28;20038;-82
2023/06/12 09:33:25;;;;;;;17.88;16.17;;;30.30;54.40;;;;;;5001907;28;20037;-82
2023/06/12 09:35:52;;;;;;;18.15;16.13;;;30.60;54.10;;;;;;4980407;28;20132;-86
2023/06/12 09:38:18;;;;;;;18.50;16.73;;;30.80;53.60;;;;;;5000023;28;20560;-82
2023/06/12 09:41:06;;;;;;;16.30;15.02;;;31.00;53.10;;;;;;4981225;28;20087;-84
2023/06/12 09:43:42;;;;;;;15.38;14.15;;;31.20;52.70;;;;;;4981100;28;20038;-81
2023/06/12 09:46:08;;;;;;;16.75;15.13;;;31.40;52.50;;;;;;4993262;28;20049;-82
2023/06/12 09:48:39;;;;;;;16.08;14.57;;;31.40;52.70;;;;;;5000940;28;20065;-79
2023/06/12 09:51:07;;;;;;;18.65;16.73;;;31.30;51.80;;;;;;4997306;28;20474;-79
2023/06/12 09:53:38;;;;;;;17.55;15.90;;;31.10;51.70;;;;;;4997935;28;20460;-78
2023/06/12 09:56:08;;;;;;;16.52;15.20;;;30.90;51.90;;;;;;5000414;28;20037;-78
2023/06/12 09:58:46;;;;;;;16.88;15.30;;;30.70;52.10;;;;;;4993419;28;20041;-78
2023/06/12 10:01:19;;;;;;;17.83;16.27;;;30.50;52.50;;;;;;4997507;28;20726;-77
2023/06/12 10:03:58;;;;;;;18.15;16.35;;;30.40;52.80;;;;;;5003622;28;20167;-78
2023/06/12 10:06:30;;;;;;;17.73;16.17;;;30.30;52.90;;;;;;4990835;28;20196;-78
2023/06/12 10:08:57;;;;;;;18.35;16.77;;;30.20;53.00;;;;;;5005213;28;20030;-78
2023/06/12 10:11:40;;;;;;;17.85;16.30;;;30.00;53.20;;;;;;5002412;28;20096;-78
2023/06/12 10:14:06;;;;;;;19.08;17.48;;;29.90;53.50;;;;;;5004385;28;20570;-79
2023/06/12 10:16:38;;;;;;;18.13;16.50;;;29.90;53.70;;;;;;5006287;28;20062;-79
2023/06/12 10:19:14;;;;;;;18.25;16.65;;;29.70;53.60;;;;;;4998627;28;20026;-79
2023/06/12 10:21:41;;;;;;;19.90;18.08;;;29.70;53.90;;;;;;5000807;28;20550;-80
2023/06/12 10:24:16;;;;;;;17.17;15.73;;;29.50;54.00;;;;;;5003380;28;20547;-80
2023/06/12 10:26:54;;;;;;;18.45;16.73;;;29.50;54.30;;;;;;5001609;28;20551;-80
2023/06/12 10:29:31;;;;;;;16.50;14.95;;;29.50;54.50;;;;;;5004129;28;20297;-79
2023/06/12 10:32:17;;;;;;;14.85;13.65;;;29.50;54.60;;;;;;4996476;28;20510;-79
2023/06/12 10:34:53;;;;;;;17.33;15.63;;;29.40;54.90;;;;;;5001333;28;20540;-78
2023/06/12 10:37:29;;;;;;;17.70;15.98;;;29.40;55.10;;;;;;5005761;28;20025;-78
2023/06/12 10:40:05;;;;;;;16.42;14.90;;;29.30;55.10;;;;;;5006037;28;20056;-79
2023/06/12 10:42:52;;;;;;;18.10;16.52;;;29.30;55.30;;;;;;5000314;28;20580;-81
2023/06/12 10:45:30;;;;;;;18.98;17.13;;;29.30;55.40;;;;;;4981288;28;20048;-80
2023/06/12 10:48:05;;;;;;;18.48;16.88;;;29.50;55.40;;;;;;5002724;28;20790;-81
2023/06/12 10:50:48;;;;;;;17.15;15.65;;;29.70;55.10;;;;;;5001062;28;20167;-82
2023/06/12 10:53:21;;;;;;;20.05;18.05;;;29.90;55.00;;;;;;5002217;28;20065;-89
2023/06/12 10:55:48;;;;;;;16.38;15.07;;;30.10;54.60;;;;;;5009446;28;20040;-94
2023/06/12 10:58:23;;;;;;;17.77;16.02;;;30.30;54.10;;;;;;5005559;28;20029;-85
2023/06/12 11:00:52;;;;;;;15.30;14.02;;;30.50;53.80;;;;;;5004362;28;20536;-83
2023/06/12 11:03:26;;;;;;;16.92;15.45;;;30.50;53.60;;;;;;5004373;28;20037;-83
2023/06/12 11:05:55;;;;;;;16.20;14.65;;;30.60;53.50;;;;;;5001412;28;20041;-82
2023/06/12 11:08:34;;;;;;;16.90;15.38;;;30.60;53.30;;;;;;5003751;28;20053;-82
2023/06/12 11:11:06;;;;;;;16.25;14.68;;;30.60;53.30;;;;;;5003159;28;20034;-83
2023/06/12 11:13:32;;;;;;;16.75;15.25;;;30.60;53.20;;;;;;4999968;28;20105;-84
2023/06/12 11:16:01;;;;;;;16.80;15.30;;;30.60;53.30;;;;;;4994792;28;20117;-84
2023/06/12 11:18:36;;;;;;;19.10;17.48;;;30.60;53.30;;;;;;5004745;28;20196;-84
2023/06/12 11:21:15;;;;;;;18.40;16.73;;;30.60;53.20;;;;;;4999661;28;20106;-83
2023/06/12 11:23:55;;;;;;;17.38;15.75;;;30.60;53.10;;;;;;5003952;28;20044;-83
2023/06/12 11:26:33;;;;;;;19.45;17.77;;;30.90;52.90;;;;;;4997725;28;20460;-83
2023/06/12 11:29:13;;;;;;;15.77;14.43;;;31.10;52.40;;;;;;4995627;28;20391;-83
2023/06/12 11:31:48;;;;;;;16.35;14.82;;;31.30;52.10;;;;;;5015713;28;20045;-82
2023/06/12 11:34:23;;;;;;;16.33;15.02;;;31.50;51.90;;;;;;5011586;28;20037;-83
2023/06/12 11:36:56;;;;;;;18.58;16.98;;;31.70;52.30;;;;;;5002480;28;20040;-83
2023/06/12 11:39:40;;;;;;;17.38;15.88;;;31.90;51.40;;;;;;5003972;28;20044;-83
2023/06/12 11:42:11;;;;;;;17.17;15.60;;;31.90;51.10;;;;;;5009409;28;20037;-83
2023/06/12 11:44:38;;;;;;;16.08;14.77;;;32.10;50.90;;;;;;5000983;28;20091;-85
2023/06/12 11:47:06;;;;;;;15.25;13.90;;;32.20;50.80;;;;;;5000375;28;20081;-84
2023/06/12 11:49:37;;;;;;;15.52;14.13;;;32.30;50.60;;;;;;4997741;28;20131;-84
2023/06/12 11:52:21;;;;;;;15.00;13.80;;;32.40;50.20;;;;;;5000376;28;20142;-83
2023/06/12 11:54:58;;;;;;;15.40;14.20;;;32.50;50.10;;;;;;5005154;28;20896;-84
2023/06/12 11:57:31;;;;;;;14.38;13.18;;;32.50;49.90;;;;;;4984666;28;20080;-82
2023/06/12 11:59:58;;;;;;;13.45;12.25;;;32.60;49.90;;;;;;4994352;28;20480;-83
2023/06/12 12:02:33;;;;;;;13.35;12.27;;;32.50;49.70;;;;;;5001048;28;20524;-90
2023/06/12 12:05:04;;;;;;;14.23;12.35;;;32.60;49.70;;;;;;4999604;28;20318;-84
2023/06/12 12:07:31;;;;;;;12.73;11.45;;;32.60;49.40;;;;;;4997214;28;20433;-83
2023/06/12 12:10:13;;;;;;;12.05;10.85;;;32.50;49.40;;;;;;5017572;28;20653;-84
2023/06/12 12:12:58;;;;;;;11.45;10.35;;;32.30;49.40;;;;;;5004083;28;20026;-83
2023/06/12 12:15:40;;;;;;;12.68;10.73;;;32.10;49.70;;;;;;4976797;28;20050;-83
2023/06/12 12:18:13;;;;;;;11.07;10.07;;;31.90;50.10;;;;;;4985118;28;20034;-84
2023/06/12 12:20:39;;;;;;;13.13;12.02;;;31.90;50.30;;;;;;4999787;28;20054;-83
2023/06/12 12:23:10;;;;;;;11.50;10.50;;;32.10;50.30;;;;;;4991665;28;20033;-84
2023/06/12 12:25:52;;;;;;;12.30;11.10;;;32.20;49.90;;;;;;4991952;28;20081;-84
2023/06/12 12:28:28;;;;;;;12.70;11.07;;;32.40;49.70;;;;;;4999238;28;20049;-83
2023/06/12 12:30:54;;;;;;;12.02;10.85;;;32.50;49.40;;;;;;5000687;28;20042;-83
2023/06/12 12:33:39;;;;;;;11.70;10.70;;;32.60;49.20;;;;;;4989828;28;20052;-82
2023/06/12 12:36:05;;;;;;;10.68;9.85;;;32.60;48.90;;;;;;4997971;28;20113;-82
2023/06/12 12:38:43;;;;;;;11.57;10.50;;;32.80;48.70;;;;;;5000250;28;20041;-82
2023/06/12 12:41:09;;;;;;;13.07;11.85;;;32.90;48.60;;;;;;5004661;28;20042;-81
2023/06/12 12:43:36;;;;;;;11.52;10.43;;;32.90;48.20;;;;;;5005181;28;20045;-83
2023/06/12 12:46:02;;;;;;;12.02;10.93;;;33.00;47.90;;;;;;4992625;28;20161;-82
2023/06/12 12:48:28;;;;;;;11.80;10.50;;;33.10;47.80;;;;;;4999391;28;20575;-83
2023/06/12 12:50:57;;;;;;;11.80;10.73;;;33.20;47.70;;;;;;4990991;28;20065;-82
2023/06/12 12:53:24;;;;;;;11.55;10.45;;;33.10;47.60;;;;;;4997443;28;20410;-83
2023/06/12 12:55:50;;;;;;;11.52;10.57;;;33.00;47.40;;;;;;4998774;28;20046;-83